Huvudsida
METAR-TAF:

METAR-TAF

Flygplatser :

Bintulu, Malaysia

latitud: 03-12N, longitud: 113-02E, höjd: 2 m

Aktuellt väderrapport

Denna rapport gjordes för 56 minuter sedan, klockan 14:00 UTC
Vind 5 kt från sydost, varierande mellan ost och syd/sydost
Temperatur 25°C
Fuktighet 100%
Tryck 1009 hPa
Sikt 10 km eller mer
Få moln på en höjd av 1600 ft
Spridda moln på en höjd av 15000 ft
Brutna moln på en höjd av 30000 ft

METAR: WBGB 201400Z 13005KT 100V160 9999 FEW016 SCT150 BKN300 25/25 Q1009

Tid: 22:56 (14:56 UTC)

Väderprognos

Denna rapport gjordes för 3 timmar och 56 minuter sedan, klockan 11:00 UTC
Prognos gäller från 20 kl. 12 UTC till 21 kl. 12 UTC
Vind 3 kt varierande vindriktning
Sikt 10 km eller mer
Spridda moln på en höjd av 1600 ft

TAF: WBGB 201100Z 2012/2112 VRB03KT 9999 SCT016

Aktuella väderrapporter och prognoser från 4000 flygplatser (METAR- och TAF-rapporter).

De tillgängliga stationerna syns som gula och röda prickar på kartan.

För musen över prickarna för att se namnen på stationerna.

Klicka sedan för att få väderrapporter och prognoser.

För att ändra kartan: Klicka på de gröna knapparna med ett svart kors på för att zooma in; den gröna knappen med ett streck på för att zooma ut; eller på de gröna pilarna för angränsande kartor.


METAR-TAF: